createdAt,value
2022-08-26T00:01:56.955Z,28.07
2022-08-26T00:04:25.859Z,28.06
2022-08-26T00:06:55.676Z,27.97
2022-08-26T00:09:25.112Z,28.03
2022-08-26T00:11:53.968Z,28.03
2022-08-26T00:14:27.043Z,27.92
2022-08-26T00:16:56.929Z,27.76
2022-08-26T00:19:24.749Z,27.49
2022-08-26T00:21:51.778Z,27.71
2022-08-26T00:24:21.732Z,27.72
2022-08-26T00:26:50.106Z,27.78
2022-08-26T00:29:19.084Z,27.78
2022-08-26T00:31:48.394Z,27.74
2022-08-26T00:34:16.801Z,27.72
2022-08-26T00:36:47.888Z,27.74
2022-08-26T00:39:19.931Z,27.71
2022-08-26T00:41:47.912Z,27.77
2022-08-26T00:44:15.016Z,27.61
2022-08-26T00:46:47.215Z,27.73
2022-08-26T00:49:21.649Z,27.73
2022-08-26T00:51:55.874Z,27.63
2022-08-26T00:54:27.507Z,27.65
2022-08-26T00:57:08.750Z,27.57
2022-08-26T01:00:06.776Z,27.56
2022-08-26T01:02:34.142Z,27.35
2022-08-26T01:05:04.669Z,27.41
2022-08-26T01:07:33.269Z,27.60
2022-08-26T01:10:07.965Z,27.29
2022-08-26T01:12:41.738Z,27.27
2022-08-26T01:15:19.243Z,27.15
2022-08-26T01:17:47.361Z,27.26
2022-08-26T01:20:49.957Z,27.16
2022-08-26T01:23:17.421Z,27.19
2022-08-26T01:25:56.846Z,27.32
2022-08-26T01:28:29.792Z,27.20
2022-08-26T01:30:58.032Z,27.20
2022-08-26T01:33:55.713Z,27.64
2022-08-26T01:36:24.930Z,27.14
2022-08-26T01:38:52.829Z,26.28
2022-08-26T01:41:27.247Z,26.32
2022-08-26T01:43:57.896Z,26.31
2022-08-26T01:46:27.031Z,26.32
2022-08-26T01:48:57.386Z,26.23
2022-08-26T01:51:26.222Z,26.23
2022-08-26T01:53:53.906Z,26.23
2022-08-26T01:56:23.591Z,26.12
2022-08-26T01:59:04.032Z,26.78
2022-08-26T02:01:31.359Z,27.07
2022-08-26T02:04:16.951Z,27.24
2022-08-26T02:06:45.167Z,27.21
2022-08-26T02:09:13.221Z,27.29
2022-08-26T02:11:42.261Z,26.44
2022-08-26T02:14:17.430Z,26.10
2022-08-26T02:16:50.249Z,26.07
2022-08-26T02:19:30.517Z,27.07
2022-08-26T02:22:04.523Z,26.02
2022-08-26T02:24:55.830Z,25.98
2022-08-26T02:27:32.825Z,26.10
2022-08-26T02:30:23.461Z,26.10
2022-08-26T02:32:51.842Z,25.99
2022-08-26T02:35:22.327Z,25.98
2022-08-26T02:37:51.950Z,25.91
2022-08-26T02:40:26.933Z,25.94
2022-08-26T02:42:56.098Z,25.68
2022-08-26T02:45:26.443Z,25.84
2022-08-26T02:47:53.943Z,25.81
2022-08-26T02:50:21.293Z,25.73
2022-08-26T02:52:49.684Z,25.71
2022-08-26T02:55:17.733Z,25.65
2022-08-26T02:57:44.745Z,25.60
2022-08-26T03:00:15.244Z,25.59
2022-08-26T03:02:42.749Z,25.58
2022-08-26T03:05:11.668Z,25.51
2022-08-26T03:07:39.045Z,25.52
2022-08-26T03:10:08.675Z,25.61
2022-08-26T03:12:36.292Z,25.50
2022-08-26T03:15:16.429Z,25.47
2022-08-26T03:17:48.042Z,25.57
2022-08-26T03:20:17.362Z,25.51
2022-08-26T03:22:45.073Z,25.40
2022-08-26T03:25:16.426Z,25.67
2022-08-26T03:27:44.022Z,25.65
2022-08-26T03:30:32.582Z,25.46
2022-08-26T03:33:00.874Z,25.48
2022-08-26T03:35:27.958Z,25.41
2022-08-26T03:37:55.499Z,25.37
2022-08-26T03:40:22.903Z,25.29
2022-08-26T03:42:50.810Z,25.34
2022-08-26T03:45:19.729Z,25.28
2022-08-26T03:47:48.039Z,25.26
2022-08-26T03:50:22.830Z,25.19
2022-08-26T03:52:52.826Z,25.21
2022-08-26T03:55:23.769Z,25.20
2022-08-26T03:57:52.150Z,25.16
2022-08-26T04:00:20.792Z,25.16
2022-08-26T04:02:51.215Z,25.27
2022-08-26T04:05:22.758Z,25.08
2022-08-26T04:07:51.242Z,25.05
2022-08-26T04:10:28.681Z,25.12
2022-08-26T04:12:58.860Z,25.10
2022-08-26T04:15:32.909Z,25.11
2022-08-26T04:18:00.872Z,25.08
2022-08-26T04:20:28.484Z,25.10
2022-08-26T04:22:55.506Z,25.16
2022-08-26T04:25:22.595Z,25.04
2022-08-26T04:27:51.541Z,24.99
2022-08-26T04:30:20.009Z,25.23
2022-08-26T04:32:47.035Z,25.26
2022-08-26T04:35:14.434Z,25.39
2022-08-26T04:37:43.099Z,25.36
2022-08-26T04:40:11.336Z,25.34
2022-08-26T04:42:38.384Z,25.34
2022-08-26T04:45:10.260Z,25.34
2022-08-26T04:47:37.765Z,25.28
2022-08-26T04:50:06.937Z,25.10
2022-08-26T04:52:36.237Z,25.22
2022-08-26T04:55:06.695Z,25.32
2022-08-26T04:57:35.903Z,25.27
2022-08-26T05:00:06.899Z,25.34
2022-08-26T05:02:34.272Z,25.18
2022-08-26T05:05:01.378Z,25.15
2022-08-26T05:07:28.581Z,25.14
2022-08-26T05:09:55.626Z,25.14
2022-08-26T05:12:23.306Z,25.19
2022-08-26T05:14:50.285Z,25.19
2022-08-26T05:17:18.925Z,25.16
2022-08-26T05:19:46.000Z,25.22
2022-08-26T05:22:14.117Z,25.25
2022-08-26T05:24:42.165Z,25.26
2022-08-26T05:27:11.671Z,25.29
2022-08-26T05:29:39.894Z,25.25
2022-08-26T05:32:07.540Z,25.28
2022-08-26T05:34:34.534Z,25.22
2022-08-26T05:37:01.965Z,25.24
2022-08-26T05:39:29.392Z,25.27
2022-08-26T05:41:56.405Z,25.28
2022-08-26T05:44:23.874Z,25.19
2022-08-26T05:46:51.821Z,25.03
2022-08-26T05:49:18.977Z,25.04
2022-08-26T05:51:47.939Z,25.08
2022-08-26T05:54:21.795Z,25.23
2022-08-26T05:56:50.949Z,25.29
2022-08-26T05:59:24.374Z,25.36
2022-08-26T06:01:54.642Z,25.38
2022-08-26T06:04:23.348Z,25.12
2022-08-26T06:06:53.894Z,24.86
2022-08-26T06:09:20.926Z,24.29
2022-08-26T06:11:48.636Z,24.17
2022-08-26T06:14:17.237Z,24.19
2022-08-26T06:16:45.608Z,24.00
2022-08-26T06:19:15.606Z,23.81
2022-08-26T06:21:46.486Z,24.34
2022-08-26T06:24:33.523Z,24.65
2022-08-26T06:27:09.571Z,24.90
2022-08-26T06:29:38.606Z,24.97
2022-08-26T06:32:06.908Z,24.95
2022-08-26T06:34:35.876Z,24.64
2022-08-26T06:37:03.683Z,24.95
2022-08-26T06:39:31.943Z,25.10
2022-08-26T06:42:00.596Z,25.25
2022-08-26T06:44:28.048Z,25.22
2022-08-26T06:46:55.318Z,25.15
2022-08-26T06:49:27.263Z,24.50
2022-08-26T06:51:58.404Z,24.51
2022-08-26T06:54:27.323Z,24.77
2022-08-26T06:56:56.936Z,25.06
2022-08-26T06:59:24.710Z,25.26
2022-08-26T07:01:52.415Z,25.55
2022-08-26T07:04:22.297Z,25.35
2022-08-26T07:06:52.411Z,25.45
2022-08-26T07:09:22.960Z,25.31
2022-08-26T07:11:51.423Z,25.19
2022-08-26T07:14:21.626Z,25.69
2022-08-26T07:16:50.597Z,25.45
2022-08-26T07:19:29.981Z,25.72
2022-08-26T07:22:02.106Z,25.38
2022-08-26T07:24:31.166Z,25.44
2022-08-26T07:27:06.166Z,25.70
2022-08-26T07:29:35.265Z,25.54
2022-08-26T07:32:03.403Z,25.73
2022-08-26T07:34:32.315Z,25.62
2022-08-26T07:37:01.296Z,25.91
2022-08-26T07:39:32.903Z,25.61
2022-08-26T07:42:07.796Z,26.01
2022-08-26T07:44:44.200Z,26.00
2022-08-26T07:47:25.899Z,26.26
2022-08-26T07:49:57.811Z,26.52
2022-08-26T07:52:27.551Z,26.93
2022-08-26T07:54:58.374Z,26.57
2022-08-26T07:57:27.159Z,26.74
2022-08-26T07:59:56.104Z,26.70
2022-08-26T08:02:25.834Z,26.55
2022-08-26T08:04:58.329Z,26.88
2022-08-26T08:07:44.380Z,26.80
2022-08-26T08:10:21.055Z,27.06
2022-08-26T08:12:49.371Z,27.16
2022-08-26T08:15:21.773Z,27.27
2022-08-26T08:17:50.519Z,26.99
2022-08-26T08:20:19.663Z,27.20
2022-08-26T08:22:47.637Z,27.17
2022-08-26T08:25:15.125Z,26.64
2022-08-26T08:27:48.595Z,26.95
2022-08-26T08:30:22.751Z,26.56
2022-08-26T08:32:51.098Z,26.48
2022-08-26T08:35:23.371Z,25.87
2022-08-26T08:37:54.397Z,25.77
2022-08-26T08:40:25.980Z,26.89
2022-08-26T08:43:07.909Z,26.73
2022-08-26T08:45:43.132Z,26.56
2022-08-26T08:48:27.910Z,27.73
2022-08-26T08:51:30.543Z,27.34
2022-08-26T08:54:00.338Z,26.61
2022-08-26T08:56:47.104Z,27.02
2022-08-26T08:59:25.518Z,26.36
2022-08-26T09:02:02.299Z,27.18
2022-08-26T09:05:00.830Z,27.74
2022-08-26T09:08:11.358Z,26.60
2022-08-26T09:10:48.484Z,27.81
2022-08-26T09:13:25.332Z,28.12
2022-08-26T09:16:26.257Z,28.89
2022-08-26T09:19:11.275Z,27.37
2022-08-26T09:21:38.754Z,27.03
2022-08-26T09:24:06.650Z,26.65
2022-08-26T09:26:39.561Z,26.79
2022-08-26T09:32:24.186Z,27.57
2022-08-26T09:35:02.160Z,27.67
2022-08-26T09:37:43.476Z,28.26
2022-08-26T09:40:29.137Z,27.35
2022-08-26T09:43:22.513Z,27.71
2022-08-26T09:45:59.313Z,26.80
2022-08-26T09:48:35.484Z,27.27
2022-08-26T09:51:24.192Z,27.34
2022-08-26T09:53:58.526Z,27.81
2022-08-26T09:56:33.545Z,27.80
2022-08-26T09:59:02.142Z,27.95
2022-08-26T10:01:38.373Z,27.76
2022-08-26T10:04:10.908Z,28.26
2022-08-26T10:06:54.668Z,28.04
2022-08-26T10:09:23.906Z,27.72
2022-08-26T10:11:54.206Z,26.65
2022-08-26T10:14:39.377Z,26.30
2022-08-26T10:17:35.725Z,26.04
2022-08-26T10:20:23.269Z,25.48
2022-08-26T10:23:14.866Z,25.82
2022-08-26T10:25:53.860Z,25.69
2022-08-26T10:28:47.333Z,25.85
2022-08-26T10:31:38.205Z,25.77
2022-08-26T10:34:08.910Z,25.71
2022-08-26T10:37:13.622Z,25.46
2022-08-26T10:40:08.105Z,25.83
2022-08-26T10:42:58.577Z,26.22
2022-08-26T10:45:33.190Z,26.41
2022-08-26T10:48:05.742Z,26.48
2022-08-26T10:50:37.890Z,26.70
2022-08-26T10:53:24.975Z,27.03
2022-08-26T10:56:37.742Z,27.30
2022-08-26T10:59:24.441Z,27.49
2022-08-26T11:02:25.895Z,27.40
2022-08-26T11:05:04.449Z,27.45
2022-08-26T11:07:40.409Z,27.27
2022-08-26T11:10:19.073Z,27.03
2022-08-26T11:12:53.753Z,27.45
2022-08-26T11:15:24.746Z,27.80
2022-08-26T11:17:51.864Z,27.52
2022-08-26T11:20:41.753Z,27.42
2022-08-26T11:23:23.990Z,28.05
2022-08-26T11:25:57.207Z,28.24
2022-08-26T11:28:47.828Z,28.41
2022-08-26T11:31:27.095Z,28.97
2022-08-26T11:34:02.894Z,29.45
2022-08-26T11:36:29.830Z,30.91
2022-08-26T11:38:58.726Z,30.81
2022-08-26T11:41:29.747Z,31.97
2022-08-26T11:43:59.671Z,32.30
2022-08-26T11:46:35.718Z,31.66
2022-08-26T11:49:06.860Z,32.39
2022-08-26T11:51:40.357Z,32.78
2022-08-26T11:54:35.480Z,31.00
2022-08-26T11:57:09.493Z,29.31
2022-08-26T11:59:40.575Z,28.37
2022-08-26T12:02:17.929Z,28.65
2022-08-26T12:04:49.696Z,28.83
2022-08-26T12:07:23.964Z,29.17
2022-08-26T12:10:02.207Z,29.12
2022-08-26T12:12:36.137Z,29.31
2022-08-26T12:15:19.955Z,29.11
2022-08-26T12:17:53.412Z,29.35
2022-08-26T12:20:54.267Z,29.58
2022-08-26T12:23:45.208Z,29.04
2022-08-26T12:26:20.855Z,29.05
2022-08-26T12:29:02.380Z,28.41
2022-08-26T12:31:47.853Z,27.52
2022-08-26T12:34:17.588Z,27.29
2022-08-26T12:36:53.043Z,27.88
2022-08-26T12:39:38.347Z,28.52
2022-08-26T12:42:41.302Z,28.91
2022-08-26T12:45:09.512Z,29.13
2022-08-26T12:47:44.201Z,28.98
2022-08-26T12:50:35.038Z,29.26
2022-08-26T12:53:07.046Z,29.25
2022-08-26T12:55:50.745Z,29.09
2022-08-26T12:58:39.004Z,28.85
2022-08-26T13:01:08.822Z,28.78
2022-08-26T13:03:38.612Z,28.75
2022-08-26T13:06:27.832Z,29.00
2022-08-26T13:09:23.963Z,29.09
2022-08-26T13:11:53.134Z,29.15
2022-08-26T13:14:24.224Z,28.73
2022-08-26T13:16:52.473Z,29.21
2022-08-26T13:19:23.615Z,28.90
2022-08-26T13:21:56.747Z,29.07
2022-08-26T13:24:33.746Z,29.17
2022-08-26T13:27:02.543Z,29.08
2022-08-26T13:29:29.592Z,28.63
2022-08-26T13:31:58.775Z,28.76
2022-08-26T13:34:26.135Z,29.14
2022-08-26T13:36:55.232Z,29.31
2022-08-26T13:39:23.777Z,29.32
2022-08-26T13:41:51.590Z,29.09
2022-08-26T13:44:19.352Z,29.30
2022-08-26T13:46:46.396Z,29.41
2022-08-26T13:49:13.600Z,29.60
2022-08-26T13:51:41.724Z,29.88
2022-08-26T13:54:09.323Z,29.85
2022-08-26T13:56:37.605Z,30.10
2022-08-26T13:59:05.733Z,30.21
2022-08-26T14:01:34.923Z,30.41
2022-08-26T14:04:03.063Z,30.58
2022-08-26T14:06:30.302Z,30.36
2022-08-26T14:08:57.531Z,30.16
2022-08-26T14:11:25.078Z,29.98
2022-08-26T14:13:52.485Z,29.98
2022-08-26T14:16:37.171Z,29.82
2022-08-26T14:19:24.326Z,30.11
2022-08-26T14:21:51.577Z,29.94
2022-08-26T14:24:19.076Z,30.24
2022-08-26T14:26:48.501Z,30.51
2022-08-26T14:29:16.861Z,30.09
2022-08-26T14:31:44.737Z,30.81
2022-08-26T14:34:14.165Z,30.76
2022-08-26T14:36:41.300Z,30.35
2022-08-26T14:39:12.274Z,30.74
2022-08-26T14:41:53.841Z,30.61
2022-08-26T14:44:27.042Z,30.19
2022-08-26T14:46:56.125Z,29.34
2022-08-26T14:49:25.369Z,30.52
2022-08-26T14:51:52.385Z,30.68
2022-08-26T14:54:21.204Z,31.01
2022-08-26T14:56:54.110Z,31.40
2022-08-26T14:59:34.235Z,31.36
2022-08-26T15:02:01.834Z,31.22
2022-08-26T15:04:29.248Z,30.83
2022-08-26T15:06:58.762Z,30.63
2022-08-26T15:09:29.625Z,30.89
2022-08-26T15:11:57.322Z,30.64
2022-08-26T15:14:26.032Z,30.31
2022-08-26T15:16:56.860Z,30.31
2022-08-26T15:19:26.138Z,30.05
2022-08-26T15:21:53.600Z,29.83
2022-08-26T15:24:24.820Z,29.99
2022-08-26T15:26:53.068Z,30.03
2022-08-26T15:29:20.394Z,29.98
2022-08-26T15:31:47.798Z,29.85
2022-08-26T15:34:16.934Z,29.63
2022-08-26T15:36:47.064Z,29.80
2022-08-26T15:39:16.540Z,29.72
2022-08-26T15:41:43.795Z,29.63
2022-08-26T15:44:11.923Z,29.79
2022-08-26T15:46:40.133Z,29.48
2022-08-26T15:49:07.290Z,29.03
2022-08-26T15:51:45.259Z,29.02
2022-08-26T15:54:14.254Z,28.89
2022-08-26T15:56:41.541Z,29.35
2022-08-26T15:59:11.829Z,29.04
2022-08-26T16:01:39.658Z,29.17
2022-08-26T16:04:07.484Z,28.97
2022-08-26T16:06:37.856Z,28.91
2022-08-26T16:09:06.611Z,29.01
2022-08-26T16:11:35.277Z,29.01
2022-08-26T16:14:04.490Z,28.81
2022-08-26T16:16:32.173Z,28.72
2022-08-26T16:19:06.858Z,28.86
2022-08-26T16:21:35.160Z,28.85
2022-08-26T16:24:03.363Z,29.10
2022-08-26T16:26:36.589Z,29.14
2022-08-26T16:29:08.101Z,29.21
2022-08-26T16:31:38.289Z,29.00
2022-08-26T16:34:07.092Z,28.22
2022-08-26T16:36:36.499Z,27.88
2022-08-26T16:39:05.945Z,27.34
2022-08-26T16:41:33.181Z,27.39
2022-08-26T16:44:00.901Z,27.02
2022-08-26T16:46:29.240Z,26.77
2022-08-26T16:48:58.715Z,26.10
2022-08-26T16:51:28.083Z,26.58
2022-08-26T16:53:56.924Z,26.79
2022-08-26T16:56:30.595Z,31.80
2022-08-26T16:59:06.079Z,27.83
2022-08-26T17:01:33.258Z,28.29
2022-08-26T17:04:00.356Z,32.78
2022-08-26T17:06:27.963Z,29.30
2022-08-26T17:08:55.048Z,28.22
2022-08-26T17:11:22.050Z,28.29
2022-08-26T17:13:49.141Z,32.76
2022-08-26T17:16:16.406Z,29.14
2022-08-26T17:18:43.551Z,30.77
2022-08-26T17:21:12.960Z,30.77
2022-08-26T17:23:41.903Z,30.77
2022-08-26T17:26:10.711Z,28.80
2022-08-26T17:28:38.416Z,29.98
2022-08-26T17:31:06.935Z,29.98
2022-08-26T17:33:34.269Z,29.98
2022-08-26T17:36:01.462Z,29.98
2022-08-26T17:38:29.216Z,29.98
2022-08-26T17:40:57.581Z,30.96
2022-08-26T17:43:26.813Z,31.61
2022-08-26T17:46:06.986Z,32.91
2022-08-26T17:48:36.662Z,32.19
2022-08-26T17:51:13.973Z,31.47
2022-08-26T17:53:42.426Z,31.67
2022-08-26T17:56:12.585Z,31.65
2022-08-26T17:58:40.750Z,31.24
2022-08-26T18:01:15.234Z,31.71
2022-08-26T18:03:42.406Z,31.15
2022-08-26T18:06:12.213Z,30.67
2022-08-26T18:08:41.293Z,30.95
2022-08-26T18:11:15.888Z,31.89
2022-08-26T18:13:47.035Z,33.72
2022-08-26T18:16:17.973Z,31.93
2022-08-26T18:18:47.232Z,31.97
2022-08-26T18:21:19.095Z,32.18
2022-08-26T18:23:47.374Z,31.88
2022-08-26T18:26:48.757Z,32.31
2022-08-26T18:29:19.362Z,32.09
2022-08-26T18:31:46.640Z,30.60
2022-08-26T18:34:15.510Z,30.31
2022-08-26T18:36:43.816Z,31.70
2022-08-26T18:39:12.570Z,30.97
2022-08-26T18:41:47.066Z,30.90
2022-08-26T18:44:16.577Z,31.28
2022-08-26T18:46:45.741Z,31.39
2022-08-26T18:49:15.423Z,31.69
2022-08-26T18:51:44.066Z,31.66
2022-08-26T18:54:11.974Z,32.27
2022-08-26T18:56:40.395Z,32.30
2022-08-26T18:59:08.962Z,32.15
2022-08-26T19:01:40.755Z,31.43
2022-08-26T19:04:15.489Z,31.44
2022-08-26T19:06:46.324Z,31.17
2022-08-26T19:09:14.617Z,30.82
2022-08-26T19:11:43.195Z,30.66
2022-08-26T19:14:14.680Z,30.52
2022-08-26T19:16:46.036Z,30.43
2022-08-26T19:19:14.954Z,29.91
2022-08-26T19:21:42.595Z,30.44
2022-08-26T19:24:17.308Z,30.24
2022-08-26T19:26:51.343Z,30.90
2022-08-26T19:29:29.206Z,30.04
2022-08-26T19:31:56.587Z,29.80
2022-08-26T19:34:24.202Z,29.93
2022-08-26T19:36:53.206Z,30.19
2022-08-26T19:39:21.533Z,32.55
2022-08-26T19:41:48.978Z,33.20
2022-08-26T19:44:39.718Z,33.36
2022-08-26T19:47:09.585Z,32.98
2022-08-26T19:49:38.490Z,32.75
2022-08-26T19:52:06.144Z,31.77
2022-08-26T19:54:33.834Z,30.88
2022-08-26T19:57:00.839Z,31.02
2022-08-26T19:59:29.046Z,31.45
2022-08-26T20:02:01.134Z,32.05
2022-08-26T20:04:31.179Z,30.59
2022-08-26T20:07:00.877Z,31.19
2022-08-26T20:09:33.956Z,31.92
2022-08-26T20:12:02.789Z,32.40
2022-08-26T20:14:30.016Z,32.19
2022-08-26T20:16:57.291Z,32.28
2022-08-26T20:19:43.205Z,32.60
2022-08-26T20:22:11.505Z,32.81
2022-08-26T20:24:39.121Z,32.35
2022-08-26T20:27:07.924Z,32.75
2022-08-26T20:29:36.923Z,32.45
2022-08-26T20:32:06.165Z,30.05
2022-08-26T20:34:33.644Z,30.34
2022-08-26T20:37:01.079Z,30.51
2022-08-26T20:39:31.386Z,29.76
2022-08-26T20:41:59.203Z,30.03
2022-08-26T20:44:26.459Z,29.90
2022-08-26T20:46:53.665Z,30.43
2022-08-26T20:49:20.841Z,30.50
2022-08-26T20:51:52.114Z,30.90
2022-08-26T20:54:26.231Z,30.20
2022-08-26T20:56:57.384Z,29.40
2022-08-26T20:59:25.752Z,29.35
2022-08-26T21:01:53.154Z,29.28
2022-08-26T21:04:23.756Z,29.84
2022-08-26T21:06:52.911Z,30.54
2022-08-26T21:09:25.257Z,29.54
2022-08-26T21:11:54.784Z,30.22
2022-08-26T21:14:25.962Z,30.43
2022-08-26T21:16:53.534Z,29.18
2022-08-26T21:19:20.629Z,28.80
2022-08-26T21:21:49.172Z,29.27
2022-08-26T21:24:16.884Z,29.80
2022-08-26T21:26:44.420Z,29.44
2022-08-26T21:29:13.519Z,29.35
2022-08-26T21:31:45.993Z,28.81
2022-08-26T21:34:17.313Z,29.11
2022-08-26T21:36:46.657Z,29.22
2022-08-26T21:39:14.724Z,29.78
2022-08-26T21:41:43.543Z,29.54
2022-08-26T21:44:12.754Z,29.28
2022-08-26T21:46:40.228Z,29.31
2022-08-26T21:49:13.611Z,29.19
2022-08-26T21:51:45.906Z,29.01
2022-08-26T21:54:13.489Z,29.03
2022-08-26T21:56:46.477Z,29.23
2022-08-26T21:59:16.787Z,29.16
2022-08-26T22:01:43.975Z,28.89
2022-08-26T22:04:11.051Z,28.73
2022-08-26T22:06:49.026Z,28.93
2022-08-26T22:09:20.736Z,28.95
2022-08-26T22:11:48.415Z,28.90
2022-08-26T22:14:17.396Z,30.22
2022-08-26T22:16:50.306Z,29.87
2022-08-26T22:19:19.910Z,29.22
2022-08-26T22:21:50.015Z,30.05
2022-08-26T22:24:20.966Z,29.43
2022-08-26T22:26:48.980Z,30.32
2022-08-26T22:29:17.089Z,30.04
2022-08-26T22:31:45.692Z,29.86
2022-08-26T22:34:17.115Z,29.95
2022-08-26T22:36:47.157Z,29.88
2022-08-26T22:39:18.629Z,29.43
2022-08-26T22:41:46.600Z,29.20
2022-08-26T22:44:13.617Z,28.83
2022-08-26T22:46:41.970Z,29.08
2022-08-26T22:49:12.447Z,29.19
2022-08-26T22:51:39.599Z,29.00
2022-08-26T22:54:06.668Z,29.65
2022-08-26T22:56:34.670Z,29.71
2022-08-26T22:59:01.804Z,29.32
2022-08-26T23:01:28.888Z,29.38
2022-08-26T23:03:55.916Z,29.09
2022-08-26T23:06:23.073Z,29.74
2022-08-26T23:08:50.159Z,29.54
2022-08-26T23:11:17.388Z,29.19
2022-08-26T23:13:44.356Z,29.06
2022-08-26T23:16:13.330Z,29.40
2022-08-26T23:18:41.437Z,28.99
2022-08-26T23:21:09.238Z,28.98
2022-08-26T23:23:37.359Z,28.90
2022-08-26T23:26:07.001Z,29.65
2022-08-26T23:28:38.345Z,29.68
2022-08-26T23:31:06.489Z,29.58
2022-08-26T23:33:52.356Z,29.33
2022-08-26T23:36:22.980Z,29.18
2022-08-26T23:38:52.693Z,29.27
2022-08-26T23:41:22.300Z,29.21
2022-08-26T23:43:51.529Z,29.24
2022-08-26T23:46:19.374Z,29.65
2022-08-26T23:48:46.926Z,29.89
2022-08-26T23:51:32.988Z,29.35
2022-08-26T23:54:00.236Z,29.64
2022-08-26T23:56:27.585Z,29.21
2022-08-26T23:58:56.590Z,29.39
